sensor_id;sensor_type;location;lat;lon;timestamp;temperature;humidity
7496;DHT22;3789;47.064;15.482;2022-11-11T00:01:51;4.90;99.90
7496;DHT22;3789;47.064;15.482;2022-11-11T00:04:20;4.90;99.90
7496;DHT22;3789;47.064;15.482;2022-11-11T00:06:47;4.90;99.90
7496;DHT22;3789;47.064;15.482;2022-11-11T00:09:19;4.80;99.90
7496;DHT22;3789;47.064;15.482;2022-11-11T00:11:47;4.80;99.90
7496;DHT22;3789;47.064;15.482;2022-11-11T00:14:14;4.80;99.90
7496;DHT22;3789;47.064;15.482;2022-11-11T00:16:46;4.80;99.90
7496;DHT22;3789;47.064;15.482;2022-11-11T00:19:35;4.70;99.90
7496;DHT22;3789;47.064;15.482;2022-11-11T00:22:22;4.70;99.90
7496;DHT22;3789;47.064;15.482;2022-11-11T00:25:16;4.70;99.90
7496;DHT22;3789;47.064;15.482;2022-11-11T00:27:44;4.60;99.90
7496;DHT22;3789;47.064;15.482;2022-11-11T00:30:15;4.70;99.90
7496;DHT22;3789;47.064;15.482;2022-11-11T00:32:43;4.60;99.90
7496;DHT22;3789;47.064;15.482;2022-11-11T00:35:11;4.50;99.90
7496;DHT22;3789;47.064;15.482;2022-11-11T00:38:10;4.40;99.90
7496;DHT22;3789;47.064;15.482;2022-11-11T00:40:38;4.20;99.90
7496;DHT22;3789;47.064;15.482;2022-11-11T00:43:05;4.20;99.90
7496;DHT22;3789;47.064;15.482;2022-11-11T00:45:34;4.30;99.90
7496;DHT22;3789;47.064;15.482;2022-11-11T00:48:11;4.40;99.90
7496;DHT22;3789;47.064;15.482;2022-11-11T00:50:58;4.40;99.90
7496;DHT22;3789;47.064;15.482;2022-11-11T00:53:31;3.10;99.90
7496;DHT22;3789;47.064;15.482;2022-11-11T00:56:01;1.40;99.90
7496;DHT22;3789;47.064;15.482;2022-11-11T00:58:35;0.10;99.90
7496;DHT22;3789;47.064;15.482;2022-11-11T01:01:03;-0.70;99.90
7496;DHT22;3789;47.064;15.482;2022-11-11T01:03:32;-1.10;99.90
7496;DHT22;3789;47.064;15.482;2022-11-11T01:06:31;-1.40;99.90
7496;DHT22;3789;47.064;15.482;2022-11-11T01:09:07;-1.70;99.90
7496;DHT22;3789;47.064;15.482;2022-11-11T01:11:42;-1.80;99.90
7496;DHT22;3789;47.064;15.482;2022-11-11T01:14:13;-1.80;99.90
7496;DHT22;3789;47.064;15.482;2022-11-11T01:16:42;-2.00;99.90
7496;DHT22;3789;47.064;15.482;2022-11-11T01:19:10;-2.20;99.90
7496;DHT22;3789;47.064;15.482;2022-11-11T01:21:41;-2.30;99.90
7496;DHT22;3789;47.064;15.482;2022-11-11T01:24:09;-2.50;99.90
7496;DHT22;3789;47.064;15.482;2022-11-11T01:26:40;-2.60;99.90
7496;DHT22;3789;47.064;15.482;2022-11-11T01:29:11;-2.70;99.90
7496;DHT22;3789;47.064;15.482;2022-11-11T01:31:58;-2.60;99.90
7496;DHT22;3789;47.064;15.482;2022-11-11T01:34:26;-2.50;99.90
7496;DHT22;3789;47.064;15.482;2022-11-11T01:36:54;-2.70;99.90
7496;DHT22;3789;47.064;15.482;2022-11-11T01:39:24;-2.70;99.90
7496;DHT22;3789;47.064;15.482;2022-11-11T01:41:57;-2.90;99.90
7496;DHT22;3789;47.064;15.482;2022-11-11T01:44:45;-3.10;99.90
7496;DHT22;3789;47.064;15.482;2022-11-11T01:47:15;-1.60;99.90
7496;DHT22;3789;47.064;15.482;2022-11-11T01:49:57;0.60;99.90
7496;DHT22;3789;47.064;15.482;2022-11-11T01:52:31;1.20;99.90
7496;DHT22;3789;47.064;15.482;2022-11-11T01:55:13;1.30;99.90
7496;DHT22;3789;47.064;15.482;2022-11-11T01:57:57;1.40;99.90
7496;DHT22;3789;47.064;15.482;2022-11-11T02:00:27;1.60;99.90
7496;DHT22;3789;47.064;15.482;2022-11-11T02:03:21;2.00;99.90
7496;DHT22;3789;47.064;15.482;2022-11-11T02:06:00;2.50;99.90
7496;DHT22;3789;47.064;15.482;2022-11-11T02:08:34;3.00;99.90
7496;DHT22;3789;47.064;15.482;2022-11-11T02:11:19;3.10;99.90
7496;DHT22;3789;47.064;15.482;2022-11-11T02:14:16;3.10;99.90
7496;DHT22;3789;47.064;15.482;2022-11-11T02:17:16;3.30;99.90
7496;DHT22;3789;47.064;15.482;2022-11-11T02:20:02;3.50;99.90
7496;DHT22;3789;47.064;15.482;2022-11-11T02:22:44;3.50;99.90
7496;DHT22;3789;47.064;15.482;2022-11-11T02:25:18;3.40;99.90
7496;DHT22;3789;47.064;15.482;2022-11-11T02:27:51;3.70;99.90
7496;DHT22;3789;47.064;15.482;2022-11-11T02:30:23;3.70;99.90
7496;DHT22;3789;47.064;15.482;2022-11-11T02:35:37;3.70;99.90
7496;DHT22;3789;47.064;15.482;2022-11-11T02:38:11;3.70;99.90
7496;DHT22;3789;47.064;15.482;2022-11-11T02:40:44;3.40;99.90
7496;DHT22;3789;47.064;15.482;2022-11-11T02:43:36;3.50;99.90
7496;DHT22;3789;47.064;15.482;2022-11-11T02:46:11;3.60;99.90
7496;DHT22;3789;47.064;15.482;2022-11-11T02:48:40;3.80;99.90
7496;DHT22;3789;47.064;15.482;2022-11-11T02:51:38;3.90;99.90
7496;DHT22;3789;47.064;15.482;2022-11-11T02:54:43;3.80;99.90
7496;DHT22;3789;47.064;15.482;2022-11-11T02:57:21;4.00;99.90
7496;DHT22;3789;47.064;15.482;2022-11-11T02:59:51;4.00;99.90
7496;DHT22;3789;47.064;15.482;2022-11-11T03:02:18;4.00;99.90
7496;DHT22;3789;47.064;15.482;2022-11-11T03:04:46;3.90;99.90
7496;DHT22;3789;47.064;15.482;2022-11-11T03:07:33;3.90;99.90
7496;DHT22;3789;47.064;15.482;2022-11-11T03:10:04;3.80;99.90
7496;DHT22;3789;47.064;15.482;2022-11-11T03:12:32;3.90;99.90
7496;DHT22;3789;47.064;15.482;2022-11-11T03:15:04;3.90;99.90
7496;DHT22;3789;47.064;15.482;2022-11-11T03:17:33;3.90;99.90
7496;DHT22;3789;47.064;15.482;2022-11-11T03:20:13;3.80;99.90
7496;DHT22;3789;47.064;15.482;2022-11-11T03:23:11;3.70;99.90
7496;DHT22;3789;47.064;15.482;2022-11-11T03:25:47;3.60;99.90
7496;DHT22;3789;47.064;15.482;2022-11-11T03:28:24;3.30;99.90
7496;DHT22;3789;47.064;15.482;2022-11-11T03:30:55;3.20;99.90
7496;DHT22;3789;47.064;15.482;2022-11-11T03:33:31;3.00;99.90
7496;DHT22;3789;47.064;15.482;2022-11-11T03:35:59;2.90;99.90
7496;DHT22;3789;47.064;15.482;2022-11-11T03:38:31;2.90;99.90
7496;DHT22;3789;47.064;15.482;2022-11-11T03:41:06;2.90;99.90
7496;DHT22;3789;47.064;15.482;2022-11-11T03:43:51;3.00;99.90
7496;DHT22;3789;47.064;15.482;2022-11-11T03:46:20;3.10;99.90
7496;DHT22;3789;47.064;15.482;2022-11-11T03:48:51;3.20;99.90
7496;DHT22;3789;47.064;15.482;2022-11-11T03:51:27;3.30;99.90
7496;DHT22;3789;47.064;15.482;2022-11-11T03:53:56;3.40;99.90
7496;DHT22;3789;47.064;15.482;2022-11-11T03:56:23;3.50;99.90
7496;DHT22;3789;47.064;15.482;2022-11-11T03:58:54;3.50;99.90
7496;DHT22;3789;47.064;15.482;2022-11-11T04:01:33;3.70;99.90
7496;DHT22;3789;47.064;15.482;2022-11-11T04:04:22;3.80;99.90
7496;DHT22;3789;47.064;15.482;2022-11-11T04:07:10;3.80;99.90
7496;DHT22;3789;47.064;15.482;2022-11-11T04:10:01;3.80;99.90
7496;DHT22;3789;47.064;15.482;2022-11-11T04:12:52;3.90;99.90
7496;DHT22;3789;47.064;15.482;2022-11-11T04:15:40;3.90;99.90
7496;DHT22;3789;47.064;15.482;2022-11-11T04:18:35;4.00;99.90
7496;DHT22;3789;47.064;15.482;2022-11-11T04:21:24;4.10;99.90
7496;DHT22;3789;47.064;15.482;2022-11-11T04:24:21;4.10;99.90
7496;DHT22;3789;47.064;15.482;2022-11-11T04:27:23;4.10;99.90
7496;DHT22;3789;47.064;15.482;2022-11-11T04:29:51;4.10;99.90
7496;DHT22;3789;47.064;15.482;2022-11-11T04:32:22;4.10;99.90
7496;DHT22;3789;47.064;15.482;2022-11-11T04:35:09;4.10;99.90
7496;DHT22;3789;47.064;15.482;2022-11-11T04:37:48;4.10;99.90
7496;DHT22;3789;47.064;15.482;2022-11-11T04:40:53;4.20;99.90
7496;DHT22;3789;47.064;15.482;2022-11-11T04:43:36;4.10;99.90
7496;DHT22;3789;47.064;15.482;2022-11-11T04:46:24;4.10;99.90
7496;DHT22;3789;47.064;15.482;2022-11-11T04:48:55;4.00;99.90
7496;DHT22;3789;47.064;15.482;2022-11-11T04:51:24;4.00;99.90
7496;DHT22;3789;47.064;15.482;2022-11-11T04:54:13;4.00;99.90
7496;DHT22;3789;47.064;15.482;2022-11-11T04:56:50;4.00;99.90
7496;DHT22;3789;47.064;15.482;2022-11-11T04:59:23;4.10;99.90
7496;DHT22;3789;47.064;15.482;2022-11-11T05:01:51;4.10;99.90
7496;DHT22;3789;47.064;15.482;2022-11-11T05:04:41;4.10;99.90
7496;DHT22;3789;47.064;15.482;2022-11-11T05:07:12;4.10;99.90
7496;DHT22;3789;47.064;15.482;2022-11-11T05:10:04;4.10;99.90
7496;DHT22;3789;47.064;15.482;2022-11-11T05:12:34;4.10;99.90
7496;DHT22;3789;47.064;15.482;2022-11-11T05:15:04;4.10;99.90
7496;DHT22;3789;47.064;15.482;2022-11-11T05:17:50;4.00;99.90
7496;DHT22;3789;47.064;15.482;2022-11-11T05:20:40;4.00;99.90
7496;DHT22;3789;47.064;15.482;2022-11-11T05:23:26;4.00;99.90
7496;DHT22;3789;47.064;15.482;2022-11-11T05:26:17;4.10;99.90
7496;DHT22;3789;47.064;15.482;2022-11-11T05:28:52;4.00;99.90
7496;DHT22;3789;47.064;15.482;2022-11-11T05:31:34;4.10;99.90
7496;DHT22;3789;47.064;15.482;2022-11-11T05:34:04;4.20;99.90
7496;DHT22;3789;47.064;15.482;2022-11-11T05:36:36;4.10;99.90
7496;DHT22;3789;47.064;15.482;2022-11-11T05:39:06;4.10;99.90
7496;DHT22;3789;47.064;15.482;2022-11-11T05:41:44;4.10;99.90
7496;DHT22;3789;47.064;15.482;2022-11-11T05:44:11;4.10;99.90
7496;DHT22;3789;47.064;15.482;2022-11-11T05:46:40;4.20;99.90
7496;DHT22;3789;47.064;15.482;2022-11-11T05:49:11;4.20;99.90
7496;DHT22;3789;47.064;15.482;2022-11-11T05:51:47;4.20;99.90
7496;DHT22;3789;47.064;15.482;2022-11-11T05:54:27;4.20;99.90
7496;DHT22;3789;47.064;15.482;2022-11-11T05:56:57;4.20;99.90
7496;DHT22;3789;47.064;15.482;2022-11-11T05:59:26;4.20;99.90
7496;DHT22;3789;47.064;15.482;2022-11-11T06:01:58;4.20;99.90
7496;DHT22;3789;47.064;15.482;2022-11-11T06:04:27;4.20;99.90
7496;DHT22;3789;47.064;15.482;2022-11-11T06:06:56;4.20;99.90
7496;DHT22;3789;47.064;15.482;2022-11-11T06:09:25;4.20;99.90
7496;DHT22;3789;47.064;15.482;2022-11-11T06:11:55;4.20;99.90
7496;DHT22;3789;47.064;15.482;2022-11-11T06:14:30;4.20;99.90
7496;DHT22;3789;47.064;15.482;2022-11-11T06:16:59;4.20;99.90
7496;DHT22;3789;47.064;15.482;2022-11-11T06:19:28;4.30;99.90
7496;DHT22;3789;47.064;15.482;2022-11-11T06:21:55;4.40;99.90
7496;DHT22;3789;47.064;15.482;2022-11-11T06:24:30;4.50;99.90
7496;DHT22;3789;47.064;15.482;2022-11-11T06:26:58;4.60;99.90
7496;DHT22;3789;47.064;15.482;2022-11-11T06:29:29;4.70;99.90
7496;DHT22;3789;47.064;15.482;2022-11-11T06:31:57;4.80;99.90
7496;DHT22;3789;47.064;15.482;2022-11-11T06:34:26;4.90;99.90
7496;DHT22;3789;47.064;15.482;2022-11-11T06:37:05;5.00;99.90
7496;DHT22;3789;47.064;15.482;2022-11-11T06:39:42;5.10;99.90
7496;DHT22;3789;47.064;15.482;2022-11-11T06:42:14;5.20;99.90
7496;DHT22;3789;47.064;15.482;2022-11-11T06:44:44;5.20;99.90
7496;DHT22;3789;47.064;15.482;2022-11-11T06:47:16;5.40;99.90
7496;DHT22;3789;47.064;15.482;2022-11-11T06:49:44;5.40;99.90
7496;DHT22;3789;47.064;15.482;2022-11-11T06:52:28;5.60;99.90
7496;DHT22;3789;47.064;15.482;2022-11-11T06:55:00;5.60;99.90
7496;DHT22;3789;47.064;15.482;2022-11-11T06:57:29;5.60;99.90
7496;DHT22;3789;47.064;15.482;2022-11-11T06:59:58;5.60;99.90
7496;DHT22;3789;47.064;15.482;2022-11-11T07:02:26;5.60;99.90
7496;DHT22;3789;47.064;15.482;2022-11-11T07:04:58;5.40;99.90
7496;DHT22;3789;47.064;15.482;2022-11-11T07:07:28;5.30;99.90
7496;DHT22;3789;47.064;15.482;2022-11-11T07:09:56;5.40;99.90
7496;DHT22;3789;47.064;15.482;2022-11-11T07:12:35;5.40;99.90
7496;DHT22;3789;47.064;15.482;2022-11-11T07:15:13;5.40;99.90
7496;DHT22;3789;47.064;15.482;2022-11-11T07:17:43;5.30;99.90
7496;DHT22;3789;47.064;15.482;2022-11-11T07:20:19;4.90;99.90
7496;DHT22;3789;47.064;15.482;2022-11-11T07:22:58;3.10;99.90
7496;DHT22;3789;47.064;15.482;2022-11-11T07:25:35;1.10;99.90
7496;DHT22;3789;47.064;15.482;2022-11-11T07:28:05;-0.10;99.90
7496;DHT22;3789;47.064;15.482;2022-11-11T07:30:41;-0.80;99.90
7496;DHT22;3789;47.064;15.482;2022-11-11T07:33:08;-1.30;99.90
7496;DHT22;3789;47.064;15.482;2022-11-11T07:35:40;-1.70;99.90
7496;DHT22;3789;47.064;15.482;2022-11-11T07:38:09;-1.90;99.90
7496;DHT22;3789;47.064;15.482;2022-11-11T07:40:38;-1.90;99.90
7496;DHT22;3789;47.064;15.482;2022-11-11T07:43:08;-1.90;99.90
7496;DHT22;3789;47.064;15.482;2022-11-11T07:45:38;-1.80;99.90
7496;DHT22;3789;47.064;15.482;2022-11-11T07:48:14;-1.60;99.90
7496;DHT22;3789;47.064;15.482;2022-11-11T07:50:42;-1.40;99.90
7496;DHT22;3789;47.064;15.482;2022-11-11T07:53:12;-1.10;99.90
7496;DHT22;3789;47.064;15.482;2022-11-11T07:55:44;-0.90;99.90
7496;DHT22;3789;47.064;15.482;2022-11-11T07:58:13;-0.70;99.90
7496;DHT22;3789;47.064;15.482;2022-11-11T08:00:41;-0.50;99.90
7496;DHT22;3789;47.064;15.482;2022-11-11T08:03:12;-0.50;99.90
7496;DHT22;3789;47.064;15.482;2022-11-11T08:05:55;-0.40;99.90
7496;DHT22;3789;47.064;15.482;2022-11-11T08:08:25;-0.60;99.90
7496;DHT22;3789;47.064;15.482;2022-11-11T08:10:55;-0.70;99.90
7496;DHT22;3789;47.064;15.482;2022-11-11T08:13:26;-0.50;99.90
7496;DHT22;3789;47.064;15.482;2022-11-11T08:16:13;0.20;99.90
7496;DHT22;3789;47.064;15.482;2022-11-11T08:18:41;2.60;99.90
7496;DHT22;3789;47.064;15.482;2022-11-11T08:21:12;4.10;99.90
7496;DHT22;3789;47.064;15.482;2022-11-11T08:23:41;5.20;99.90
7496;DHT22;3789;47.064;15.482;2022-11-11T08:26:32;6.10;99.90
7496;DHT22;3789;47.064;15.482;2022-11-11T08:29:02;7.00;99.90
7496;DHT22;3789;47.064;15.482;2022-11-11T08:31:37;7.60;99.90
7496;DHT22;3789;47.064;15.482;2022-11-11T08:34:07;7.90;99.90
7496;DHT22;3789;47.064;15.482;2022-11-11T08:36:38;7.90;99.90
7496;DHT22;3789;47.064;15.482;2022-11-11T08:39:07;8.00;99.90
7496;DHT22;3789;47.064;15.482;2022-11-11T08:41:39;8.20;99.90
7496;DHT22;3789;47.064;15.482;2022-11-11T08:44:08;8.30;99.90
7496;DHT22;3789;47.064;15.482;2022-11-11T08:46:37;8.50;99.90
7496;DHT22;3789;47.064;15.482;2022-11-11T08:49:13;8.60;99.90
7496;DHT22;3789;47.064;15.482;2022-11-11T08:51:44;8.70;99.90
7496;DHT22;3789;47.064;15.482;2022-11-11T08:54:12;8.90;99.90
7496;DHT22;3789;47.064;15.482;2022-11-11T08:56:43;8.90;99.90
7496;DHT22;3789;47.064;15.482;2022-11-11T08:59:14;8.90;99.90
7496;DHT22;3789;47.064;15.482;2022-11-11T09:01:44;8.90;99.90
7496;DHT22;3789;47.064;15.482;2022-11-11T09:04:19;9.00;99.90
7496;DHT22;3789;47.064;15.482;2022-11-11T09:07:08;9.20;99.90
7496;DHT22;3789;47.064;15.482;2022-11-11T09:09:44;9.30;99.90
7496;DHT22;3789;47.064;15.482;2022-11-11T09:12:12;9.40;99.90
7496;DHT22;3789;47.064;15.482;2022-11-11T09:14:42;9.50;99.90
7496;DHT22;3789;47.064;15.482;2022-11-11T09:17:10;9.60;99.90
7496;DHT22;3789;47.064;15.482;2022-11-11T09:19:40;9.70;99.90
7496;DHT22;3789;47.064;15.482;2022-11-11T09:22:13;9.70;99.90
7496;DHT22;3789;47.064;15.482;2022-11-11T09:24:42;9.90;99.90
7496;DHT22;3789;47.064;15.482;2022-11-11T09:27:17;9.90;99.90
7496;DHT22;3789;47.064;15.482;2022-11-11T09:29:48;10.00;99.90
7496;DHT22;3789;47.064;15.482;2022-11-11T09:32:16;10.10;99.90
7496;DHT22;3789;47.064;15.482;2022-11-11T09:34:48;10.30;99.90
7496;DHT22;3789;47.064;15.482;2022-11-11T09:37:18;10.30;99.90
7496;DHT22;3789;47.064;15.482;2022-11-11T09:39:55;10.30;99.90
7496;DHT22;3789;47.064;15.482;2022-11-11T09:42:40;10.30;99.90
7496;DHT22;3789;47.064;15.482;2022-11-11T09:45:47;10.30;99.90
7496;DHT22;3789;47.064;15.482;2022-11-11T09:54:20;10.40;99.90
7496;DHT22;3789;47.064;15.482;2022-11-11T09:57:31;10.50;99.90
7496;DHT22;3789;47.064;15.482;2022-11-11T10:00:30;10.50;99.90
7496;DHT22;3789;47.064;15.482;2022-11-11T10:03:15;10.50;99.90
7496;DHT22;3789;47.064;15.482;2022-11-11T10:06:16;10.60;99.90
7496;DHT22;3789;47.064;15.482;2022-11-11T10:09:06;10.50;99.90
7496;DHT22;3789;47.064;15.482;2022-11-11T10:11:59;10.70;99.90
7496;DHT22;3789;47.064;15.482;2022-11-11T10:14:55;10.70;99.90
7496;DHT22;3789;47.064;15.482;2022-11-11T10:17:52;10.90;99.90
7496;DHT22;3789;47.064;15.482;2022-11-11T10:20:51;10.90;99.90
7496;DHT22;3789;47.064;15.482;2022-11-11T10:23:29;10.90;99.90
7496;DHT22;3789;47.064;15.482;2022-11-11T10:26:13;10.90;99.90
7496;DHT22;3789;47.064;15.482;2022-11-11T10:28:43;11.00;99.90
7496;DHT22;3789;47.064;15.482;2022-11-11T10:31:20;10.90;99.90
7496;DHT22;3789;47.064;15.482;2022-11-11T10:34:09;10.80;99.90
7496;DHT22;3789;47.064;15.482;2022-11-11T10:36:48;10.90;99.90
7496;DHT22;3789;47.064;15.482;2022-11-11T10:42:30;11.10;99.90
7496;DHT22;3789;47.064;15.482;2022-11-11T10:45:07;11.10;99.90
7496;DHT22;3789;47.064;15.482;2022-11-11T10:50:47;11.10;99.90
7496;DHT22;3789;47.064;15.482;2022-11-11T10:56:39;11.20;99.90
7496;DHT22;3789;47.064;15.482;2022-11-11T11:02:32;11.10;99.90
7496;DHT22;3789;47.064;15.482;2022-11-11T11:05:36;11.10;99.90
7496;DHT22;3789;47.064;15.482;2022-11-11T11:08:11;11.20;99.90
7496;DHT22;3789;47.064;15.482;2022-11-11T11:11:04;11.20;99.90
7496;DHT22;3789;47.064;15.482;2022-11-11T11:13:51;11.30;99.90
7496;DHT22;3789;47.064;15.482;2022-11-11T11:16:45;11.30;99.90
7496;DHT22;3789;47.064;15.482;2022-11-11T11:19:28;11.40;99.90
7496;DHT22;3789;47.064;15.482;2022-11-11T11:22:02;11.50;99.90
7496;DHT22;3789;47.064;15.482;2022-11-11T11:24:40;11.50;99.90
7496;DHT22;3789;47.064;15.482;2022-11-11T11:27:12;11.40;99.90
7496;DHT22;3789;47.064;15.482;2022-11-11T11:30:19;11.40;99.90
7496;DHT22;3789;47.064;15.482;2022-11-11T11:33:24;11.40;99.90
7496;DHT22;3789;47.064;15.482;2022-11-11T11:35:52;11.40;99.90
7496;DHT22;3789;47.064;15.482;2022-11-11T11:38:23;11.40;99.90
7496;DHT22;3789;47.064;15.482;2022-11-11T11:41:06;11.40;99.90
7496;DHT22;3789;47.064;15.482;2022-11-11T11:43:38;11.30;99.90
7496;DHT22;3789;47.064;15.482;2022-11-11T11:46:39;11.30;99.90
7496;DHT22;3789;47.064;15.482;2022-11-11T11:55:21;11.10;99.90
7496;DHT22;3789;47.064;15.482;2022-11-11T12:01:22;11.10;99.90
7496;DHT22;3789;47.064;15.482;2022-11-11T12:04:26;11.00;99.90
7496;DHT22;3789;47.064;15.482;2022-11-11T12:16:42;10.90;99.90
7496;DHT22;3789;47.064;15.482;2022-11-11T12:19:54;10.90;99.90
7496;DHT22;3789;47.064;15.482;2022-11-11T12:37:06;10.90;99.90
7496;DHT22;3789;47.064;15.482;2022-11-11T12:43:19;11.00;99.90
7496;DHT22;3789;47.064;15.482;2022-11-11T12:46:41;11.00;99.90
7496;DHT22;3789;47.064;15.482;2022-11-11T12:55:23;11.00;99.90
7496;DHT22;3789;47.064;15.482;2022-11-11T12:58:58;11.00;99.90
7496;DHT22;3789;47.064;15.482;2022-11-11T13:16:44;11.30;99.90
7496;DHT22;3789;47.064;15.482;2022-11-11T13:19:21;11.40;99.90
7496;DHT22;3789;47.064;15.482;2022-11-11T13:22:30;11.40;99.90
7496;DHT22;3789;47.064;15.482;2022-11-11T13:25:25;11.50;99.90
7496;DHT22;3789;47.064;15.482;2022-11-11T13:31:19;11.50;99.90
7496;DHT22;3789;47.064;15.482;2022-11-11T13:34:01;11.60;99.90
7496;DHT22;3789;47.064;15.482;2022-11-11T13:37:17;11.60;99.90
7496;DHT22;3789;47.064;15.482;2022-11-11T13:40:31;11.60;99.90
7496;DHT22;3789;47.064;15.482;2022-11-11T13:43:39;11.50;99.90
7496;DHT22;3789;47.064;15.482;2022-11-11T13:49:05;11.50;99.90
7496;DHT22;3789;47.064;15.482;2022-11-11T13:52:09;11.50;99.90
7496;DHT22;3789;47.064;15.482;2022-11-11T13:55:29;11.50;99.90
7496;DHT22;3789;47.064;15.482;2022-11-11T13:58:06;11.50;99.90
7496;DHT22;3789;47.064;15.482;2022-11-11T14:00:36;11.50;99.90
7496;DHT22;3789;47.064;15.482;2022-11-11T14:08:56;11.30;99.90
7496;DHT22;3789;47.064;15.482;2022-11-11T14:11:34;11.30;99.90
7496;DHT22;3789;47.064;15.482;2022-11-11T14:17:13;11.20;99.90
7496;DHT22;3789;47.064;15.482;2022-11-11T14:19:46;11.10;99.90
7496;DHT22;3789;47.064;15.482;2022-11-11T14:22:31;11.10;99.90
7496;DHT22;3789;47.064;15.482;2022-11-11T14:25:19;11.10;99.90
7496;DHT22;3789;47.064;15.482;2022-11-11T14:28:27;11.00;99.90
7496;DHT22;3789;47.064;15.482;2022-11-11T14:40:00;10.80;99.90
7496;DHT22;3789;47.064;15.482;2022-11-11T14:42:44;10.80;99.90
7496;DHT22;3789;47.064;15.482;2022-11-11T14:51:47;10.70;99.90
7496;DHT22;3789;47.064;15.482;2022-11-11T14:54:42;10.60;99.90
7496;DHT22;3789;47.064;15.482;2022-11-11T15:03:46;10.40;99.90
7496;DHT22;3789;47.064;15.482;2022-11-11T15:09:45;10.20;99.90
7496;DHT22;3789;47.064;15.482;2022-11-11T15:16:09;10.00;99.90
7496;DHT22;3789;47.064;15.482;2022-11-11T15:21:42;9.90;99.90
7496;DHT22;3789;47.064;15.482;2022-11-11T15:24:32;9.80;99.90
7496;DHT22;3789;47.064;15.482;2022-11-11T15:27:53;9.70;99.90
7496;DHT22;3789;47.064;15.482;2022-11-11T15:39:16;9.40;99.90
7496;DHT22;3789;47.064;15.482;2022-11-11T15:41:51;9.30;99.90
7496;DHT22;3789;47.064;15.482;2022-11-11T15:44:29;9.20;99.90
7496;DHT22;3789;47.064;15.482;2022-11-11T15:47:10;9.10;99.90
7496;DHT22;3789;47.064;15.482;2022-11-11T15:49:48;9.00;99.90
7496;DHT22;3789;47.064;15.482;2022-11-11T15:52:30;8.70;99.90
7496;DHT22;3789;47.064;15.482;2022-11-11T15:55:38;8.60;99.90
7496;DHT22;3789;47.064;15.482;2022-11-11T15:58:40;8.50;99.90
7496;DHT22;3789;47.064;15.482;2022-11-11T16:01:24;8.50;99.90
7496;DHT22;3789;47.064;15.482;2022-11-11T16:03:53;8.40;99.90
7496;DHT22;3789;47.064;15.482;2022-11-11T16:06:23;8.40;99.90
7496;DHT22;3789;47.064;15.482;2022-11-11T16:08:56;8.40;99.90
7496;DHT22;3789;47.064;15.482;2022-11-11T16:11:24;8.40;99.90
7496;DHT22;3789;47.064;15.482;2022-11-11T16:16:40;8.30;99.90
7496;DHT22;3789;47.064;15.482;2022-11-11T16:19:27;8.30;99.90
7496;DHT22;3789;47.064;15.482;2022-11-11T16:22:23;8.20;99.90
7496;DHT22;3789;47.064;15.482;2022-11-11T16:24:55;8.20;99.90
7496;DHT22;3789;47.064;15.482;2022-11-11T16:27:34;8.20;99.90
7496;DHT22;3789;47.064;15.482;2022-11-11T16:30:33;8.10;99.90
7496;DHT22;3789;47.064;15.482;2022-11-11T16:35:53;7.80;99.90
7496;DHT22;3789;47.064;15.482;2022-11-11T16:38:34;6.20;99.90
7496;DHT22;3789;47.064;15.482;2022-11-11T16:41:20;4.70;99.90
7496;DHT22;3789;47.064;15.482;2022-11-11T16:44:01;3.90;99.90
7496;DHT22;3789;47.064;15.482;2022-11-11T16:46:46;3.30;99.90
7496;DHT22;3789;47.064;15.482;2022-11-11T16:49:34;3.00;99.90
7496;DHT22;3789;47.064;15.482;2022-11-11T16:52:28;2.80;99.90
7496;DHT22;3789;47.064;15.482;2022-11-11T16:54:59;3.00;99.90
7496;DHT22;3789;47.064;15.482;2022-11-11T16:57:34;3.60;99.90
7496;DHT22;3789;47.064;15.482;2022-11-11T17:00:21;4.50;99.90
7496;DHT22;3789;47.064;15.482;2022-11-11T17:03:20;5.20;99.90
7496;DHT22;3789;47.064;15.482;2022-11-11T17:08:44;6.10;99.90
7496;DHT22;3789;47.064;15.482;2022-11-11T17:11:43;6.30;99.90
7496;DHT22;3789;47.064;15.482;2022-11-11T17:14:12;6.40;99.90
7496;DHT22;3789;47.064;15.482;2022-11-11T17:16:44;6.50;99.90
7496;DHT22;3789;47.064;15.482;2022-11-11T17:19:12;6.60;99.90
7496;DHT22;3789;47.064;15.482;2022-11-11T17:21:42;6.60;99.90
7496;DHT22;3789;47.064;15.482;2022-11-11T17:24:15;6.60;99.90
7496;DHT22;3789;47.064;15.482;2022-11-11T17:26:44;6.70;99.90
7496;DHT22;3789;47.064;15.482;2022-11-11T17:29:14;6.80;99.90
7496;DHT22;3789;47.064;15.482;2022-11-11T17:31:42;6.90;99.90
7496;DHT22;3789;47.064;15.482;2022-11-11T17:34:11;6.90;99.90
7496;DHT22;3789;47.064;15.482;2022-11-11T17:36:41;6.90;99.90
7496;DHT22;3789;47.064;15.482;2022-11-11T17:39:09;6.90;99.90
7496;DHT22;3789;47.064;15.482;2022-11-11T17:41:39;6.90;99.90
7496;DHT22;3789;47.064;15.482;2022-11-11T17:44:11;6.90;99.90
7496;DHT22;3789;47.064;15.482;2022-11-11T17:46:49;6.90;99.90
7496;DHT22;3789;47.064;15.482;2022-11-11T17:49:26;6.80;99.90
7496;DHT22;3789;47.064;15.482;2022-11-11T17:52:22;6.90;99.90
7496;DHT22;3789;47.064;15.482;2022-11-11T17:54:52;6.90;99.90
7496;DHT22;3789;47.064;15.482;2022-11-11T17:57:22;6.80;99.90
7496;DHT22;3789;47.064;15.482;2022-11-11T18:00:00;6.90;99.90
7496;DHT22;3789;47.064;15.482;2022-11-11T18:02:31;6.90;99.90
7496;DHT22;3789;47.064;15.482;2022-11-11T18:05:04;6.90;99.90
7496;DHT22;3789;47.064;15.482;2022-11-11T18:07:40;6.80;99.90
7496;DHT22;3789;47.064;15.482;2022-11-11T18:10:14;6.70;99.90
7496;DHT22;3789;47.064;15.482;2022-11-11T18:12:46;6.70;99.90
7496;DHT22;3789;47.064;15.482;2022-11-11T18:15:18;6.70;99.90
7496;DHT22;3789;47.064;15.482;2022-11-11T18:17:48;6.60;99.90
7496;DHT22;3789;47.064;15.482;2022-11-11T18:20:18;6.60;99.90
7496;DHT22;3789;47.064;15.482;2022-11-11T18:22:45;6.60;99.90
7496;DHT22;3789;47.064;15.482;2022-11-11T18:25:15;6.50;99.90
7496;DHT22;3789;47.064;15.482;2022-11-11T18:27:45;6.60;99.90
7496;DHT22;3789;47.064;15.482;2022-11-11T18:30:14;6.60;99.90
7496;DHT22;3789;47.064;15.482;2022-11-11T18:32:46;6.60;99.90
7496;DHT22;3789;47.064;15.482;2022-11-11T18:35:23;6.50;99.90
7496;DHT22;3789;47.064;15.482;2022-11-11T18:37:58;6.50;99.90
7496;DHT22;3789;47.064;15.482;2022-11-11T18:40:32;6.50;99.90
7496;DHT22;3789;47.064;15.482;2022-11-11T18:43:01;6.40;99.90
7496;DHT22;3789;47.064;15.482;2022-11-11T18:45:34;6.50;99.90
7496;DHT22;3789;47.064;15.482;2022-11-11T18:48:02;6.50;99.90
7496;DHT22;3789;47.064;15.482;2022-11-11T18:50:33;6.50;99.90
7496;DHT22;3789;47.064;15.482;2022-11-11T18:53:05;6.50;99.90
7496;DHT22;3789;47.064;15.482;2022-11-11T18:55:36;6.50;99.90
7496;DHT22;3789;47.064;15.482;2022-11-11T18:58:13;6.50;99.90
7496;DHT22;3789;47.064;15.482;2022-11-11T19:00:48;6.60;99.90
7496;DHT22;3789;47.064;15.482;2022-11-11T19:03:17;6.60;99.90
7496;DHT22;3789;47.064;15.482;2022-11-11T19:05:46;6.70;99.90
7496;DHT22;3789;47.064;15.482;2022-11-11T19:08:24;6.60;99.90
7496;DHT22;3789;47.064;15.482;2022-11-11T19:10:59;6.70;99.90
7496;DHT22;3789;47.064;15.482;2022-11-11T19:13:30;5.60;99.90
7496;DHT22;3789;47.064;15.482;2022-11-11T19:16:09;3.70;99.90
7496;DHT22;3789;47.064;15.482;2022-11-11T19:18:42;2.10;99.90
7496;DHT22;3789;47.064;15.482;2022-11-11T19:21:25;1.20;99.90
7496;DHT22;3789;47.064;15.482;2022-11-11T19:23:59;0.60;99.90
7496;DHT22;3789;47.064;15.482;2022-11-11T19:26:29;0.20;99.90
7496;DHT22;3789;47.064;15.482;2022-11-11T19:29:06;-0.10;99.90
7496;DHT22;3789;47.064;15.482;2022-11-11T19:31:43;-0.50;99.90